sensor_id;sensor_type;location;lat;lon;timestamp;temperature;humidity
45489;DHT22;31236;55.026;61.042;2023-06-05T00:01:43;18.30;92.00
45489;DHT22;31236;55.026;61.042;2023-06-05T00:04:15;18.20;92.00
45489;DHT22;31236;55.026;61.042;2023-06-05T00:06:49;18.20;91.90
45489;DHT22;31236;55.026;61.042;2023-06-05T00:09:53;18.20;91.90
45489;DHT22;31236;55.026;61.042;2023-06-05T00:11:56;18.20;92.00
45489;DHT22;31236;55.026;61.042;2023-06-05T00:14:26;18.20;92.10
45489;DHT22;31236;55.026;61.042;2023-06-05T00:16:57;18.10;92.40
45489;DHT22;31236;55.026;61.042;2023-06-05T00:19:27;18.10;92.50
45489;DHT22;31236;55.026;61.042;2023-06-05T00:21:57;18.10;92.40
45489;DHT22;31236;55.026;61.042;2023-06-05T00:24:31;18.20;92.40
45489;DHT22;31236;55.026;61.042;2023-06-05T00:27:02;18.10;92.40
45489;DHT22;31236;55.026;61.042;2023-06-05T00:29:32;18.10;92.40
45489;DHT22;31236;55.026;61.042;2023-06-05T00:32:05;18.10;92.50
45489;DHT22;31236;55.026;61.042;2023-06-05T00:34:35;18.20;92.40
45489;DHT22;31236;55.026;61.042;2023-06-05T00:37:04;18.20;92.40
45489;DHT22;31236;55.026;61.042;2023-06-05T00:39:38;18.20;92.50
45489;DHT22;31236;55.026;61.042;2023-06-05T00:42:10;18.30;92.50
45489;DHT22;31236;55.026;61.042;2023-06-05T00:44:41;18.30;92.50
45489;DHT22;31236;55.026;61.042;2023-06-05T00:47:13;18.30;92.50
45489;DHT22;31236;55.026;61.042;2023-06-05T00:49:48;18.40;92.60
45489;DHT22;31236;55.026;61.042;2023-06-05T00:52:19;18.40;92.50
45489;DHT22;31236;55.026;61.042;2023-06-05T00:54:51;18.40;92.40
45489;DHT22;31236;55.026;61.042;2023-06-05T00:57:21;18.40;92.40
45489;DHT22;31236;55.026;61.042;2023-06-05T00:59:51;18.40;92.40
45489;DHT22;31236;55.026;61.042;2023-06-05T01:02:21;18.30;92.60
45489;DHT22;31236;55.026;61.042;2023-06-05T01:04:51;18.20;92.70
45489;DHT22;31236;55.026;61.042;2023-06-05T01:07:23;18.20;92.80
45489;DHT22;31236;55.026;61.042;2023-06-05T01:09:55;18.10;92.80
45489;DHT22;31236;55.026;61.042;2023-06-05T01:15:38;18.20;92.90
45489;DHT22;31236;55.026;61.042;2023-06-05T01:18:10;18.20;92.70
45489;DHT22;31236;55.026;61.042;2023-06-05T01:20:45;18.20;92.80
45489;DHT22;31236;55.026;61.042;2023-06-05T01:23:18;18.30;92.80
45489;DHT22;31236;55.026;61.042;2023-06-05T01:25:52;18.40;92.70
45489;DHT22;31236;55.026;61.042;2023-06-05T01:28:28;18.40;92.60
45489;DHT22;31236;55.026;61.042;2023-06-05T01:31:20;18.40;92.70
45489;DHT22;31236;55.026;61.042;2023-06-05T01:34:13;18.40;92.70
45489;DHT22;31236;55.026;61.042;2023-06-05T01:36:46;18.50;92.80
45489;DHT22;31236;55.026;61.042;2023-06-05T01:39:17;18.60;92.70
45489;DHT22;31236;55.026;61.042;2023-06-05T01:41:48;18.60;92.70
45489;DHT22;31236;55.026;61.042;2023-06-05T01:44:21;18.70;92.60
45489;DHT22;31236;55.026;61.042;2023-06-05T01:46:51;18.80;92.50
45489;DHT22;31236;55.026;61.042;2023-06-05T01:49:21;18.90;92.40
45489;DHT22;31236;55.026;61.042;2023-06-05T01:51:51;18.90;92.10
45489;DHT22;31236;55.026;61.042;2023-06-05T01:54:22;19.00;92.00
45489;DHT22;31236;55.026;61.042;2023-06-05T01:56:53;19.10;92.00
45489;DHT22;31236;55.026;61.042;2023-06-05T01:59:23;19.20;91.60
45489;DHT22;31236;55.026;61.042;2023-06-05T02:01:54;19.20;91.70
45489;DHT22;31236;55.026;61.042;2023-06-05T02:04:27;19.30;91.40
45489;DHT22;31236;55.026;61.042;2023-06-05T02:06:59;19.40;91.30
45489;DHT22;31236;55.026;61.042;2023-06-05T02:09:31;19.50;91.00
45489;DHT22;31236;55.026;61.042;2023-06-05T02:12:03;19.50;91.00
45489;DHT22;31236;55.026;61.042;2023-06-05T02:14:33;19.60;90.80
45489;DHT22;31236;55.026;61.042;2023-06-05T02:17:05;19.60;90.60
45489;DHT22;31236;55.026;61.042;2023-06-05T02:19:36;19.70;90.70
45489;DHT22;31236;55.026;61.042;2023-06-05T02:22:07;19.80;90.70
45489;DHT22;31236;55.026;61.042;2023-06-05T02:24:37;19.80;90.80
45489;DHT22;31236;55.026;61.042;2023-06-05T02:27:09;19.90;90.30
45489;DHT22;31236;55.026;61.042;2023-06-05T02:29:39;19.90;90.20
45489;DHT22;31236;55.026;61.042;2023-06-05T02:32:09;20.00;90.40
45489;DHT22;31236;55.026;61.042;2023-06-05T02:34:39;20.00;90.80
45489;DHT22;31236;55.026;61.042;2023-06-05T02:37:09;20.10;90.30
45489;DHT22;31236;55.026;61.042;2023-06-05T02:39:41;20.10;90.00
45489;DHT22;31236;55.026;61.042;2023-06-05T02:42:11;20.20;90.20
45489;DHT22;31236;55.026;61.042;2023-06-05T02:44:42;20.30;89.90
45489;DHT22;31236;55.026;61.042;2023-06-05T02:47:12;20.40;89.00
45489;DHT22;31236;55.026;61.042;2023-06-05T02:49:43;20.40;88.90
45489;DHT22;31236;55.026;61.042;2023-06-05T02:52:12;20.40;88.60
45489;DHT22;31236;55.026;61.042;2023-06-05T02:54:42;20.50;88.40
45489;DHT22;31236;55.026;61.042;2023-06-05T02:57:11;20.50;87.70
45489;DHT22;31236;55.026;61.042;2023-06-05T02:59:43;20.60;88.00
45489;DHT22;31236;55.026;61.042;2023-06-05T03:02:13;20.60;87.30
45489;DHT22;31236;55.026;61.042;2023-06-05T03:04:43;20.70;87.10
45489;DHT22;31236;55.026;61.042;2023-06-05T03:07:14;20.80;86.40
45489;DHT22;31236;55.026;61.042;2023-06-05T03:09:44;20.90;85.40
45489;DHT22;31236;55.026;61.042;2023-06-05T03:12:17;21.00;84.60
45489;DHT22;31236;55.026;61.042;2023-06-05T03:14:49;21.10;85.20
45489;DHT22;31236;55.026;61.042;2023-06-05T03:17:19;21.10;84.40
45489;DHT22;31236;55.026;61.042;2023-06-05T03:19:50;21.20;85.20
45489;DHT22;31236;55.026;61.042;2023-06-05T03:22:19;21.30;84.30
45489;DHT22;31236;55.026;61.042;2023-06-05T03:24:51;21.40;84.10
45489;DHT22;31236;55.026;61.042;2023-06-05T03:27:22;21.50;83.20
45489;DHT22;31236;55.026;61.042;2023-06-05T03:29:54;21.60;83.20
45489;DHT22;31236;55.026;61.042;2023-06-05T03:32:25;21.70;82.30
45489;DHT22;31236;55.026;61.042;2023-06-05T03:34:55;21.70;81.20
45489;DHT22;31236;55.026;61.042;2023-06-05T03:37:26;21.70;80.80
45489;DHT22;31236;55.026;61.042;2023-06-05T03:39:56;21.80;80.70
45489;DHT22;31236;55.026;61.042;2023-06-05T03:42:26;21.80;79.30
45489;DHT22;31236;55.026;61.042;2023-06-05T03:44:56;21.90;79.90
45489;DHT22;31236;55.026;61.042;2023-06-05T03:47:26;22.10;80.20
45489;DHT22;31236;55.026;61.042;2023-06-05T03:49:55;22.20;80.30
45489;DHT22;31236;55.026;61.042;2023-06-05T03:52:27;22.30;78.20
45489;DHT22;31236;55.026;61.042;2023-06-05T03:54:58;22.30;77.40
45489;DHT22;31236;55.026;61.042;2023-06-05T03:57:29;22.30;76.20
45489;DHT22;31236;55.026;61.042;2023-06-05T03:59:59;22.30;75.60
45489;DHT22;31236;55.026;61.042;2023-06-05T04:02:30;22.50;76.40
45489;DHT22;31236;55.026;61.042;2023-06-05T04:05:00;22.50;75.00
45489;DHT22;31236;55.026;61.042;2023-06-05T04:07:30;22.60;75.30
45489;DHT22;31236;55.026;61.042;2023-06-05T04:10:00;22.60;74.60
45489;DHT22;31236;55.026;61.042;2023-06-05T04:12:31;22.60;75.50
45489;DHT22;31236;55.026;61.042;2023-06-05T04:15:02;22.70;74.80
45489;DHT22;31236;55.026;61.042;2023-06-05T04:17:33;22.70;75.40
45489;DHT22;31236;55.026;61.042;2023-06-05T04:20:06;22.90;74.30
45489;DHT22;31236;55.026;61.042;2023-06-05T04:22:55;22.90;75.40
45489;DHT22;31236;55.026;61.042;2023-06-05T04:25:24;23.00;74.80
45489;DHT22;31236;55.026;61.042;2023-06-05T04:27:56;23.10;72.60
45489;DHT22;31236;55.026;61.042;2023-06-05T04:30:26;23.20;72.80
45489;DHT22;31236;55.026;61.042;2023-06-05T04:32:58;23.20;73.30
45489;DHT22;31236;55.026;61.042;2023-06-05T04:35:30;23.30;73.00
45489;DHT22;31236;55.026;61.042;2023-06-05T04:38:01;23.40;71.60
45489;DHT22;31236;55.026;61.042;2023-06-05T04:40:30;23.40;71.60
45489;DHT22;31236;55.026;61.042;2023-06-05T04:45:54;23.50;70.20
45489;DHT22;31236;55.026;61.042;2023-06-05T04:48:27;23.60;69.00
45489;DHT22;31236;55.026;61.042;2023-06-05T04:50:57;23.60;68.70
45489;DHT22;31236;55.026;61.042;2023-06-05T04:53:27;23.50;68.70
45489;DHT22;31236;55.026;61.042;2023-06-05T04:56:00;23.60;69.70
45489;DHT22;31236;55.026;61.042;2023-06-05T04:58:30;23.70;67.90
45489;DHT22;31236;55.026;61.042;2023-06-05T05:00:59;23.70;67.90
45489;DHT22;31236;55.026;61.042;2023-06-05T05:03:32;23.80;67.50
45489;DHT22;31236;55.026;61.042;2023-06-05T05:06:03;23.90;68.10
45489;DHT22;31236;55.026;61.042;2023-06-05T05:08:37;24.00;68.10
45489;DHT22;31236;55.026;61.042;2023-06-05T05:11:06;24.00;66.00
45489;DHT22;31236;55.026;61.042;2023-06-05T05:13:38;24.00;67.80
45489;DHT22;31236;55.026;61.042;2023-06-05T05:16:08;24.10;67.00
45489;DHT22;31236;55.026;61.042;2023-06-05T05:18:42;24.10;68.00
45489;DHT22;31236;55.026;61.042;2023-06-05T05:21:12;24.20;66.20
45489;DHT22;31236;55.026;61.042;2023-06-05T05:23:45;24.30;66.00
45489;DHT22;31236;55.026;61.042;2023-06-05T05:26:14;24.50;66.70
45489;DHT22;31236;55.026;61.042;2023-06-05T05:28:46;24.50;65.90
45489;DHT22;31236;55.026;61.042;2023-06-05T05:31:16;24.60;65.80
45489;DHT22;31236;55.026;61.042;2023-06-05T05:33:46;24.70;65.10
45489;DHT22;31236;55.026;61.042;2023-06-05T05:36:19;24.80;63.90
45489;DHT22;31236;55.026;61.042;2023-06-05T05:38:49;24.70;62.40
45489;DHT22;31236;55.026;61.042;2023-06-05T05:41:18;24.70;62.90
45489;DHT22;31236;55.026;61.042;2023-06-05T05:43:50;24.80;62.80
45489;DHT22;31236;55.026;61.042;2023-06-05T05:46:20;24.80;62.80
45489;DHT22;31236;55.026;61.042;2023-06-05T05:48:49;24.90;62.70
45489;DHT22;31236;55.026;61.042;2023-06-05T05:51:21;25.00;60.70
45489;DHT22;31236;55.026;61.042;2023-06-05T05:53:52;25.10;61.80
45489;DHT22;31236;55.026;61.042;2023-06-05T05:56:22;25.20;62.10
45489;DHT22;31236;55.026;61.042;2023-06-05T05:58:52;25.30;62.00
45489;DHT22;31236;55.026;61.042;2023-06-05T06:01:22;25.30;62.10
45489;DHT22;31236;55.026;61.042;2023-06-05T06:03:54;25.40;62.10
45489;DHT22;31236;55.026;61.042;2023-06-05T06:06:24;25.40;60.90
45489;DHT22;31236;55.026;61.042;2023-06-05T06:08:54;25.40;59.70
45489;DHT22;31236;55.026;61.042;2023-06-05T06:11:24;25.50;59.70
45489;DHT22;31236;55.026;61.042;2023-06-05T06:13:55;25.50;58.70
45489;DHT22;31236;55.026;61.042;2023-06-05T06:16:28;25.60;60.80
45489;DHT22;31236;55.026;61.042;2023-06-05T06:18:59;25.70;59.80
45489;DHT22;31236;55.026;61.042;2023-06-05T06:21:28;25.70;59.10
45489;DHT22;31236;55.026;61.042;2023-06-05T06:23:58;25.70;58.60
45489;DHT22;31236;55.026;61.042;2023-06-05T06:26:30;25.80;61.80
45489;DHT22;31236;55.026;61.042;2023-06-05T06:29:00;26.00;62.30
45489;DHT22;31236;55.026;61.042;2023-06-05T06:31:30;26.10;59.40
45489;DHT22;31236;55.026;61.042;2023-06-05T06:33:59;26.10;60.20
45489;DHT22;31236;55.026;61.042;2023-06-05T06:36:29;26.20;58.60
45489;DHT22;31236;55.026;61.042;2023-06-05T06:38:59;26.30;58.00
45489;DHT22;31236;55.026;61.042;2023-06-05T06:41:29;26.40;58.30
45489;DHT22;31236;55.026;61.042;2023-06-05T06:43:59;26.40;58.40
45489;DHT22;31236;55.026;61.042;2023-06-05T06:46:28;26.40;58.60
45489;DHT22;31236;55.026;61.042;2023-06-05T06:48:58;26.50;58.50
45489;DHT22;31236;55.026;61.042;2023-06-05T06:51:30;26.50;58.00
45489;DHT22;31236;55.026;61.042;2023-06-05T06:53:59;26.50;58.60
45489;DHT22;31236;55.026;61.042;2023-06-05T06:56:29;26.50;58.30
45489;DHT22;31236;55.026;61.042;2023-06-05T06:59:00;26.60;57.20
45489;DHT22;31236;55.026;61.042;2023-06-05T07:01:30;26.70;57.70
45489;DHT22;31236;55.026;61.042;2023-06-05T07:03:59;26.80;57.20
45489;DHT22;31236;55.026;61.042;2023-06-05T07:06:31;26.80;56.60
45489;DHT22;31236;55.026;61.042;2023-06-05T07:09:01;26.80;56.10
45489;DHT22;31236;55.026;61.042;2023-06-05T07:11:31;26.90;56.60
45489;DHT22;31236;55.026;61.042;2023-06-05T07:14:00;27.00;57.40
45489;DHT22;31236;55.026;61.042;2023-06-05T07:16:30;27.00;56.70
45489;DHT22;31236;55.026;61.042;2023-06-05T07:19:00;27.10;55.30
45489;DHT22;31236;55.026;61.042;2023-06-05T07:21:30;27.20;55.60
45489;DHT22;31236;55.026;61.042;2023-06-05T07:24:01;27.30;56.80
45489;DHT22;31236;55.026;61.042;2023-06-05T07:26:32;27.50;53.50
45489;DHT22;31236;55.026;61.042;2023-06-05T07:29:02;27.50;54.80
45489;DHT22;31236;55.026;61.042;2023-06-05T07:31:34;27.50;54.40
45489;DHT22;31236;55.026;61.042;2023-06-05T07:34:06;27.40;51.90
45489;DHT22;31236;55.026;61.042;2023-06-05T07:36:35;27.40;53.00
45489;DHT22;31236;55.026;61.042;2023-06-05T07:39:05;27.50;52.10
45489;DHT22;31236;55.026;61.042;2023-06-05T07:41:36;27.60;51.60
45489;DHT22;31236;55.026;61.042;2023-06-05T07:44:10;27.60;51.40
45489;DHT22;31236;55.026;61.042;2023-06-05T07:46:41;27.70;52.10
45489;DHT22;31236;55.026;61.042;2023-06-05T07:49:12;27.80;50.20
45489;DHT22;31236;55.026;61.042;2023-06-05T07:51:42;27.80;48.90
45489;DHT22;31236;55.026;61.042;2023-06-05T07:54:14;27.80;49.90
45489;DHT22;31236;55.026;61.042;2023-06-05T07:56:45;27.80;49.30
45489;DHT22;31236;55.026;61.042;2023-06-05T07:59:16;27.80;48.80
45489;DHT22;31236;55.026;61.042;2023-06-05T08:01:47;27.90;51.70
45489;DHT22;31236;55.026;61.042;2023-06-05T08:04:18;27.90;48.70
45489;DHT22;31236;55.026;61.042;2023-06-05T08:06:51;27.90;48.80
45489;DHT22;31236;55.026;61.042;2023-06-05T08:09:21;27.80;47.50
45489;DHT22;31236;55.026;61.042;2023-06-05T08:11:50;27.70;48.10
45489;DHT22;31236;55.026;61.042;2023-06-05T08:14:22;27.80;48.30
45489;DHT22;31236;55.026;61.042;2023-06-05T08:16:52;27.90;48.70
45489;DHT22;31236;55.026;61.042;2023-06-05T08:19:23;28.00;48.30
45489;DHT22;31236;55.026;61.042;2023-06-05T08:21:53;28.10;49.90
45489;DHT22;31236;55.026;61.042;2023-06-05T08:24:25;28.20;47.50
45489;DHT22;31236;55.026;61.042;2023-06-05T08:26:56;28.30;49.00
45489;DHT22;31236;55.026;61.042;2023-06-05T08:29:27;28.30;48.30
45489;DHT22;31236;55.026;61.042;2023-06-05T08:31:57;28.20;47.20
45489;DHT22;31236;55.026;61.042;2023-06-05T08:34:26;28.20;47.50
45489;DHT22;31236;55.026;61.042;2023-06-05T08:36:56;28.20;46.70
45489;DHT22;31236;55.026;61.042;2023-06-05T08:39:26;28.10;48.00
45489;DHT22;31236;55.026;61.042;2023-06-05T08:41:58;28.20;47.10
45489;DHT22;31236;55.026;61.042;2023-06-05T08:44:29;28.00;46.90
45489;DHT22;31236;55.026;61.042;2023-06-05T08:47:01;28.10;48.30
45489;DHT22;31236;55.026;61.042;2023-06-05T08:49:34;28.20;47.00
45489;DHT22;31236;55.026;61.042;2023-06-05T08:52:07;28.30;47.20
45489;DHT22;31236;55.026;61.042;2023-06-05T08:54:38;28.40;47.40
45489;DHT22;31236;55.026;61.042;2023-06-05T08:57:08;28.50;47.40
45489;DHT22;31236;55.026;61.042;2023-06-05T09:00:11;28.50;47.60
45489;DHT22;31236;55.026;61.042;2023-06-05T09:02:11;28.60;46.20
45489;DHT22;31236;55.026;61.042;2023-06-05T09:04:41;28.50;46.70
45489;DHT22;31236;55.026;61.042;2023-06-05T09:07:11;28.40;45.70
45489;DHT22;31236;55.026;61.042;2023-06-05T09:09:43;28.50;46.70
45489;DHT22;31236;55.026;61.042;2023-06-05T09:12:14;28.50;46.20
45489;DHT22;31236;55.026;61.042;2023-06-05T09:14:44;28.50;46.20
45489;DHT22;31236;55.026;61.042;2023-06-05T09:17:14;28.60;46.00
45489;DHT22;31236;55.026;61.042;2023-06-05T09:19:44;28.70;47.90
45489;DHT22;31236;55.026;61.042;2023-06-05T09:22:15;28.70;47.80
45489;DHT22;31236;55.026;61.042;2023-06-05T09:24:50;28.60;49.40
45489;DHT22;31236;55.026;61.042;2023-06-05T09:27:21;28.60;49.60
45489;DHT22;31236;55.026;61.042;2023-06-05T09:29:56;28.60;49.70
45489;DHT22;31236;55.026;61.042;2023-06-05T09:32:25;28.50;49.30
45489;DHT22;31236;55.026;61.042;2023-06-05T09:38:42;28.60;51.60
45489;DHT22;31236;55.026;61.042;2023-06-05T09:40:39;28.50;51.40
45489;DHT22;31236;55.026;61.042;2023-06-05T09:43:28;28.20;51.80
45489;DHT22;31236;55.026;61.042;2023-06-05T09:45:57;27.90;53.10
45489;DHT22;31236;55.026;61.042;2023-06-05T09:48:27;28.10;53.50
45489;DHT22;31236;55.026;61.042;2023-06-05T09:53:50;28.10;52.80
45489;DHT22;31236;55.026;61.042;2023-06-05T09:56:21;28.10;53.40
45489;DHT22;31236;55.026;61.042;2023-06-05T09:58:52;28.10;53.60
45489;DHT22;31236;55.026;61.042;2023-06-05T10:01:24;28.20;54.20
45489;DHT22;31236;55.026;61.042;2023-06-05T10:04:14;28.40;52.90
45489;DHT22;31236;55.026;61.042;2023-06-05T10:06:46;28.30;53.00
45489;DHT22;31236;55.026;61.042;2023-06-05T10:09:17;28.20;53.00
45489;DHT22;31236;55.026;61.042;2023-06-05T10:11:49;28.30;51.50
45489;DHT22;31236;55.026;61.042;2023-06-05T10:14:20;28.20;51.50
45489;DHT22;31236;55.026;61.042;2023-06-05T10:16:50;28.20;51.90
45489;DHT22;31236;55.026;61.042;2023-06-05T10:19:21;28.20;51.70
45489;DHT22;31236;55.026;61.042;2023-06-05T10:21:52;28.00;51.60
45489;DHT22;31236;55.026;61.042;2023-06-05T10:24:26;27.90;51.00
45489;DHT22;31236;55.026;61.042;2023-06-05T10:36:27;27.90;51.10
45489;DHT22;31236;55.026;61.042;2023-06-05T10:38:55;27.80;50.50
45489;DHT22;31236;55.026;61.042;2023-06-05T10:41:27;27.60;50.80
45489;DHT22;31236;55.026;61.042;2023-06-05T10:43:56;27.50;51.60
45489;DHT22;31236;55.026;61.042;2023-06-05T10:46:46;27.50;51.80
45489;DHT22;31236;55.026;61.042;2023-06-05T10:49:18;27.40;51.50
45489;DHT22;31236;55.026;61.042;2023-06-05T10:51:50;27.40;50.00
45489;DHT22;31236;55.026;61.042;2023-06-05T10:56:58;27.40;52.70
45489;DHT22;31236;55.026;61.042;2023-06-05T10:59:49;27.40;52.20
45489;DHT22;31236;55.026;61.042;2023-06-05T11:02:45;27.50;52.50
45489;DHT22;31236;55.026;61.042;2023-06-05T11:05:10;27.40;52.00
45489;DHT22;31236;55.026;61.042;2023-06-05T11:07:41;27.40;52.60
45489;DHT22;31236;55.026;61.042;2023-06-05T11:10:32;27.40;53.10
45489;DHT22;31236;55.026;61.042;2023-06-05T11:13:03;27.50;52.80
45489;DHT22;31236;55.026;61.042;2023-06-05T11:15:52;27.50;52.70
45489;DHT22;31236;55.026;61.042;2023-06-05T11:18:42;27.50;52.80
45489;DHT22;31236;55.026;61.042;2023-06-05T11:21:13;27.30;53.70
45489;DHT22;31236;55.026;61.042;2023-06-05T11:24:12;27.30;55.60
45489;DHT22;31236;55.026;61.042;2023-06-05T11:29:28;27.40;53.70
45489;DHT22;31236;55.026;61.042;2023-06-05T11:31:58;27.40;54.30
45489;DHT22;31236;55.026;61.042;2023-06-05T11:34:30;27.30;54.70
45489;DHT22;31236;55.026;61.042;2023-06-05T11:39:53;27.30;54.50
45489;DHT22;31236;55.026;61.042;2023-06-05T11:42:23;27.30;55.00
45489;DHT22;31236;55.026;61.042;2023-06-05T11:44:53;27.30;54.50
45489;DHT22;31236;55.026;61.042;2023-06-05T11:47:42;27.30;54.60
45489;DHT22;31236;55.026;61.042;2023-06-05T11:50:14;27.20;55.60
45489;DHT22;31236;55.026;61.042;2023-06-05T11:52:44;27.30;55.20
45489;DHT22;31236;55.026;61.042;2023-06-05T11:55:33;27.20;55.60
45489;DHT22;31236;55.026;61.042;2023-06-05T11:58:25;27.00;55.80
45489;DHT22;31236;55.026;61.042;2023-06-05T12:01:16;27.00;55.70
45489;DHT22;31236;55.026;61.042;2023-06-05T12:04:07;27.00;56.00
45489;DHT22;31236;55.026;61.042;2023-06-05T12:06:57;26.90;56.10
45489;DHT22;31236;55.026;61.042;2023-06-05T12:09:29;27.00;56.80
45489;DHT22;31236;55.026;61.042;2023-06-05T12:12:19;27.00;56.60
45489;DHT22;31236;55.026;61.042;2023-06-05T12:14:53;27.10;55.80
45489;DHT22;31236;55.026;61.042;2023-06-05T12:17:23;26.90;55.20
45489;DHT22;31236;55.026;61.042;2023-06-05T12:20:12;26.60;55.60
45489;DHT22;31236;55.026;61.042;2023-06-05T12:22:41;26.50;55.90
45489;DHT22;31236;55.026;61.042;2023-06-05T12:25:31;26.60;55.90
45489;DHT22;31236;55.026;61.042;2023-06-05T12:28:00;26.70;53.70
45489;DHT22;31236;55.026;61.042;2023-06-05T12:30:39;26.70;54.90
45489;DHT22;31236;55.026;61.042;2023-06-05T12:33:22;26.50;55.20
45489;DHT22;31236;55.026;61.042;2023-06-05T12:36:13;26.30;55.30
45489;DHT22;31236;55.026;61.042;2023-06-05T12:38:43;26.00;56.00
45489;DHT22;31236;55.026;61.042;2023-06-05T12:41:14;25.80;56.50
45489;DHT22;31236;55.026;61.042;2023-06-05T12:43:44;25.70;57.30
45489;DHT22;31236;55.026;61.042;2023-06-05T12:46:14;25.70;56.80
45489;DHT22;31236;55.026;61.042;2023-06-05T12:48:43;25.60;58.30
45489;DHT22;31236;55.026;61.042;2023-06-05T12:51:13;25.60;57.40
45489;DHT22;31236;55.026;61.042;2023-06-05T12:53:44;25.40;57.30
45489;DHT22;31236;55.026;61.042;2023-06-05T12:56:16;25.30;57.70
45489;DHT22;31236;55.026;61.042;2023-06-05T12:59:07;25.30;58.60
45489;DHT22;31236;55.026;61.042;2023-06-05T13:01:37;25.20;58.10
45489;DHT22;31236;55.026;61.042;2023-06-05T13:04:07;25.20;58.00
45489;DHT22;31236;55.026;61.042;2023-06-05T13:06:37;25.10;58.40
45489;DHT22;31236;55.026;61.042;2023-06-05T13:09:08;25.10;58.40
45489;DHT22;31236;55.026;61.042;2023-06-05T13:11:37;25.10;59.00
45489;DHT22;31236;55.026;61.042;2023-06-05T13:14:07;25.20;58.70
45489;DHT22;31236;55.026;61.042;2023-06-05T13:16:39;25.10;59.00
45489;DHT22;31236;55.026;61.042;2023-06-05T13:19:09;25.10;58.80
45489;DHT22;31236;55.026;61.042;2023-06-05T13:21:40;25.10;58.50
45489;DHT22;31236;55.026;61.042;2023-06-05T13:24:12;25.00;58.60
45489;DHT22;31236;55.026;61.042;2023-06-05T13:26:43;24.90;58.90
45489;DHT22;31236;55.026;61.042;2023-06-05T13:29:14;24.90;58.60
45489;DHT22;31236;55.026;61.042;2023-06-05T13:31:47;24.80;59.70
45489;DHT22;31236;55.026;61.042;2023-06-05T13:34:16;24.70;59.70
45489;DHT22;31236;55.026;61.042;2023-06-05T13:36:48;24.70;60.40
45489;DHT22;31236;55.026;61.042;2023-06-05T13:39:18;24.70;59.80
45489;DHT22;31236;55.026;61.042;2023-06-05T13:41:49;24.70;59.90
45489;DHT22;31236;55.026;61.042;2023-06-05T13:44:19;24.80;59.40
45489;DHT22;31236;55.026;61.042;2023-06-05T13:46:49;24.70;59.10
45489;DHT22;31236;55.026;61.042;2023-06-05T13:49:22;24.70;59.20
45489;DHT22;31236;55.026;61.042;2023-06-05T13:51:52;24.60;59.70
45489;DHT22;31236;55.026;61.042;2023-06-05T13:54:22;24.70;59.30
45489;DHT22;31236;55.026;61.042;2023-06-05T13:56:51;24.80;59.80
45489;DHT22;31236;55.026;61.042;2023-06-05T13:59:23;24.70;58.60
45489;DHT22;31236;55.026;61.042;2023-06-05T14:01:53;24.70;59.30
45489;DHT22;31236;55.026;61.042;2023-06-05T14:04:24;24.80;59.20
45489;DHT22;31236;55.026;61.042;2023-06-05T14:06:55;24.80;58.90
45489;DHT22;31236;55.026;61.042;2023-06-05T14:09:26;24.80;59.10
45489;DHT22;31236;55.026;61.042;2023-06-05T14:11:57;24.90;59.00
45489;DHT22;31236;55.026;61.042;2023-06-05T14:14:27;24.90;59.20
45489;DHT22;31236;55.026;61.042;2023-06-05T14:16:57;25.00;60.10
45489;DHT22;31236;55.026;61.042;2023-06-05T14:19:26;25.00;59.30
45489;DHT22;31236;55.026;61.042;2023-06-05T14:21:56;25.00;59.30
45489;DHT22;31236;55.026;61.042;2023-06-05T14:24:26;25.00;58.80
45489;DHT22;31236;55.026;61.042;2023-06-05T14:26:55;25.00;59.20
45489;DHT22;31236;55.026;61.042;2023-06-05T14:29:25;25.00;58.60
45489;DHT22;31236;55.026;61.042;2023-06-05T14:31:54;25.00;59.20
45489;DHT22;31236;55.026;61.042;2023-06-05T14:34:24;25.00;59.00
45489;DHT22;31236;55.026;61.042;2023-06-05T14:36:55;25.10;59.70
45489;DHT22;31236;55.026;61.042;2023-06-05T14:39:25;25.10;59.60
45489;DHT22;31236;55.026;61.042;2023-06-05T14:41:55;25.10;59.70
45489;DHT22;31236;55.026;61.042;2023-06-05T14:44:25;25.20;58.40
45489;DHT22;31236;55.026;61.042;2023-06-05T14:46:56;25.20;58.20
45489;DHT22;31236;55.026;61.042;2023-06-05T14:49:26;25.10;58.20
45489;DHT22;31236;55.026;61.042;2023-06-05T14:51:55;25.20;59.10
45489;DHT22;31236;55.026;61.042;2023-06-05T14:54:25;25.20;58.70
45489;DHT22;31236;55.026;61.042;2023-06-05T14:56:55;25.20;59.00
45489;DHT22;31236;55.026;61.042;2023-06-05T14:59:25;25.30;59.20
45489;DHT22;31236;55.026;61.042;2023-06-05T15:01:55;25.30;57.70
45489;DHT22;31236;55.026;61.042;2023-06-05T15:04:26;25.30;58.30
45489;DHT22;31236;55.026;61.042;2023-06-05T15:06:56;25.20;58.40
45489;DHT22;31236;55.026;61.042;2023-06-05T15:09:26;25.10;58.90
45489;DHT22;31236;55.026;61.042;2023-06-05T15:11:57;25.00;58.80
45489;DHT22;31236;55.026;61.042;2023-06-05T15:14:27;25.00;59.00
45489;DHT22;31236;55.026;61.042;2023-06-05T15:16:56;24.90;59.40
45489;DHT22;31236;55.026;61.042;2023-06-05T15:19:26;24.80;60.20
45489;DHT22;31236;55.026;61.042;2023-06-05T15:21:55;24.70;60.40
45489;DHT22;31236;55.026;61.042;2023-06-05T15:24:25;24.60;61.00
45489;DHT22;31236;55.026;61.042;2023-06-05T15:26:54;24.50;61.10
45489;DHT22;31236;55.026;61.042;2023-06-05T15:29:24;24.30;61.50
45489;DHT22;31236;55.026;61.042;2023-06-05T15:31:54;24.20;61.80
45489;DHT22;31236;55.026;61.042;2023-06-05T15:34:23;24.10;62.10
45489;DHT22;31236;55.026;61.042;2023-06-05T15:36:53;24.00;62.40
45489;DHT22;31236;55.026;61.042;2023-06-05T15:39:23;24.00;62.40
45489;DHT22;31236;55.026;61.042;2023-06-05T15:41:53;23.90;61.90
45489;DHT22;31236;55.026;61.042;2023-06-05T15:44:22;23.90;61.50
45489;DHT22;31236;55.026;61.042;2023-06-05T15:46:52;23.70;61.90
45489;DHT22;31236;55.026;61.042;2023-06-05T15:49:23;23.70;62.40
45489;DHT22;31236;55.026;61.042;2023-06-05T15:51:52;23.50;62.80
45489;DHT22;31236;55.026;61.042;2023-06-05T15:54:22;23.50;63.00
45489;DHT22;31236;55.026;61.042;2023-06-05T15:57:12;23.40;63.10
45489;DHT22;31236;55.026;61.042;2023-06-05T15:59:45;23.30;63.50
45489;DHT22;31236;55.026;61.042;2023-06-05T16:02:15;23.10;64.10
45489;DHT22;31236;55.026;61.042;2023-06-05T16:04:44;23.00;64.20
45489;DHT22;31236;55.026;61.042;2023-06-05T16:07:14;22.90;64.50
45489;DHT22;31236;55.026;61.042;2023-06-05T16:09:44;22.80;64.70
45489;DHT22;31236;55.026;61.042;2023-06-05T16:12:14;22.80;65.10
45489;DHT22;31236;55.026;61.042;2023-06-05T16:14:45;22.70;65.30